Time;durP1;ratioP1;P1;durP2;ratioP2;P2;SDS_P1;SDS_P2;PMS_P1;PMS_P2;Temp;Humidity;BMP_temperature;BMP_pressure;BME280_temperature;BME280_humidity;BME280_pressure;Samples;Min_cycle;Max_cycle;Signal;HPM_P1;HPM_P2
2022/03/27 00:01:20;;;;;;;7.93;4.72;;;5.70;99.90;;;;;;5107731;27;20392;-77
2022/03/27 00:03:46;;;;;;;9.75;4.40;;;5.70;99.90;;;;;;5113729;27;20061;-79
2022/03/27 00:06:11;;;;;;;10.00;4.35;;;5.80;99.90;;;;;;5115233;27;20205;-78
2022/03/27 00:08:37;;;;;;;11.88;4.70;;;5.80;99.90;;;;;;5117096;27;20043;-80
2022/03/27 00:13:47;;;;;;;7.45;4.40;;;5.80;99.90;;;;;;5127951;27;20386;-82
2022/03/27 00:16:13;;;;;;;11.43;4.95;;;5.80;99.90;;;;;;5108596;27;20035;-81
2022/03/27 00:18:41;;;;;;;9.18;4.65;;;5.80;99.90;;;;;;5129227;27;20162;-78
2022/03/27 00:21:07;;;;;;;8.73;4.40;;;5.90;99.90;;;;;;5105651;27;20039;-81
2022/03/27 00:23:33;;;;;;;14.18;5.60;;;5.90;99.90;;;;;;5106569;27;20039;-76
2022/03/27 00:25:59;;;;;;;14.57;5.55;;;6.00;99.90;;;;;;5104164;27;20059;-79
2022/03/27 00:28:32;;;;;;;15.45;5.25;;;6.00;99.90;;;;;;5116050;27;20126;-78
2022/03/27 00:31:02;;;;;;;13.00;5.57;;;6.10;99.90;;;;;;5104048;27;20050;-80
2022/03/27 00:33:28;;;;;;;13.68;5.18;;;6.00;99.90;;;;;;5107271;27;20495;-80
2022/03/27 00:35:59;;;;;;;16.58;5.97;;;5.90;99.90;;;;;;5108302;27;21084;-82
2022/03/27 00:38:25;;;;;;;18.02;5.70;;;5.90;99.90;;;;;;5087462;27;20043;-77
2022/03/27 00:40:52;;;;;;;17.10;6.57;;;6.10;99.90;;;;;;5115754;27;20085;-80
2022/03/27 00:43:20;;;;;;;17.13;6.65;;;6.10;99.90;;;;;;5103435;27;20043;-80
2022/03/27 00:45:46;;;;;;;17.77;6.10;;;6.10;99.90;;;;;;5108205;27;20478;-77
2022/03/27 00:48:19;;;;;;;18.48;6.55;;;6.00;99.90;;;;;;5092791;27;20070;-82
2022/03/27 00:50:46;;;;;;;18.45;6.72;;;6.10;99.90;;;;;;5104676;27;20036;-79
2022/03/27 00:53:12;;;;;;;13.25;6.65;;;6.10;99.90;;;;;;5114448;27;20057;-77
2022/03/27 00:55:38;;;;;;;18.10;6.93;;;6.10;99.90;;;;;;5092491;27;20094;-81
2022/03/27 00:58:04;;;;;;;17.23;6.85;;;6.60;99.90;;;;;;5111795;27;20027;-79
2022/03/27 01:00:39;;;;;;;21.92;6.95;;;6.20;99.90;;;;;;5088400;27;20035;-79
2022/03/27 01:03:11;;;;;;;16.98;6.70;;;6.10;99.90;;;;;;5101918;27;20052;-78
2022/03/27 01:05:38;;;;;;;16.85;6.93;;;6.10;99.90;;;;;;5108281;27;20042;-77
2022/03/27 01:08:08;;;;;;;15.52;6.30;;;6.20;99.90;;;;;;5107055;27;20508;-79
2022/03/27 01:10:34;;;;;;;15.10;6.55;;;6.20;99.90;;;;;;5110318;27;20048;-77
2022/03/27 01:13:16;;;;;;;13.90;7.10;;;6.20;99.90;;;;;;5104338;27;20478;-81
2022/03/27 01:16:00;;;;;;;15.98;6.43;;;6.20;99.90;;;;;;5090869;27;20080;-77
2022/03/27 01:18:26;;;;;;;20.52;7.30;;;6.50;99.90;;;;;;5093341;27;20054;-79
2022/03/27 01:20:53;;;;;;;20.83;7.30;;;6.30;99.90;;;;;;5102535;27;20031;-82
2022/03/27 01:23:19;;;;;;;19.85;7.45;;;6.30;99.90;;;;;;5114773;27;20039;-79
2022/03/27 01:25:45;;;;;;;21.50;7.65;;;6.30;99.90;;;;;;5105122;27;20084;-77
2022/03/27 01:28:14;;;;;;;22.63;8.13;;;6.30;99.90;;;;;;5098410;27;20077;-79
2022/03/27 01:30:41;;;;;;;17.90;6.53;;;6.30;99.90;;;;;;5104498;27;20149;-81
2022/03/27 01:33:09;;;;;;;15.77;6.50;;;6.30;99.90;;;;;;5087284;27;20035;-76
2022/03/27 01:35:38;;;;;;;13.30;5.88;;;6.20;99.90;;;;;;5113288;27;20400;-77
2022/03/27 01:38:04;;;;;;;13.43;6.13;;;6.30;99.90;;;;;;5114099;27;20031;-78
2022/03/27 01:40:29;;;;;;;9.73;5.70;;;6.20;99.90;;;;;;5090972;27;20152;-78
2022/03/27 01:42:55;;;;;;;16.85;6.03;;;6.20;99.90;;;;;;5112180;27;20027;-77
2022/03/27 01:45:23;;;;;;;12.57;5.75;;;6.20;99.90;;;;;;5113954;27;20047;-77
2022/03/27 01:47:48;;;;;;;11.18;5.50;;;6.10;99.90;;;;;;5096677;27;20051;-77
2022/03/27 01:50:14;;;;;;;12.57;5.45;;;6.20;99.90;;;;;;5114207;27;20043;-78
2022/03/27 01:52:40;;;;;;;19.17;5.70;;;6.00;99.90;;;;;;5108576;27;20059;-76
2022/03/27 01:55:07;;;;;;;14.48;5.88;;;5.90;99.90;;;;;;5113263;27;20390;-78
2022/03/27 01:57:33;;;;;;;12.23;5.82;;;5.90;99.90;;;;;;5102480;27;20035;-76
2022/03/27 01:59:58;;;;;;;13.07;6.00;;;5.90;99.90;;;;;;5084613;27;20039;-80
2022/03/27 02:02:24;;;;;;;19.40;6.47;;;5.90;99.90;;;;;;5090520;27;20394;-81
2022/03/27 02:04:53;;;;;;;13.35;6.28;;;6.00;99.90;;;;;;5100451;27;20069;-79
2022/03/27 02:07:22;;;;;;;19.85;6.78;;;6.00;99.90;;;;;;5104738;27;20073;-78
2022/03/27 02:09:49;;;;;;;14.82;5.97;;;5.90;99.90;;;;;;5092182;27;20084;-76
2022/03/27 02:12:15;;;;;;;20.63;6.18;;;6.00;99.90;;;;;;5107322;27;20488;-75
2022/03/27 02:14:41;;;;;;;16.17;6.72;;;6.00;99.90;;;;;;5119062;27;20040;-80
2022/03/27 02:17:08;;;;;;;17.58;7.18;;;5.90;99.90;;;;;;5085389;27;20041;-78
2022/03/27 02:19:35;;;;;;;20.63;6.75;;;5.90;99.90;;;;;;5103896;27;20095;-78
2022/03/27 02:22:02;;;;;;;16.30;6.93;;;5.90;99.90;;;;;;5088538;27;20122;-80
2022/03/27 02:24:28;;;;;;;21.17;6.78;;;5.90;99.90;;;;;;5102846;27;20111;-79
2022/03/27 02:26:54;;;;;;;19.15;6.70;;;6.00;99.90;;;;;;5104938;27;20035;-78
2022/03/27 02:29:20;;;;;;;19.90;6.88;;;6.00;99.90;;;;;;5099854;27;20027;-80
2022/03/27 02:31:46;;;;;;;27.67;7.38;;;5.90;99.90;;;;;;5091686;27;20043;-77
2022/03/27 02:34:12;;;;;;;20.17;6.47;;;5.90;99.90;;;;;;5094024;27;20347;-76
2022/03/27 02:36:38;;;;;;;20.98;7.10;;;5.90;99.90;;;;;;5114912;27;20036;-76
2022/03/27 02:39:05;;;;;;;16.58;7.05;;;6.00;99.90;;;;;;5096474;27;20038;-79
2022/03/27 02:41:31;;;;;;;20.02;7.22;;;5.90;99.90;;;;;;5120692;27;20035;-81
2022/03/27 02:43:58;;;;;;;26.98;6.85;;;5.80;99.90;;;;;;5096242;27;20046;-77
2022/03/27 02:46:24;;;;;;;18.88;6.93;;;5.80;99.90;;;;;;5101340;27;20465;-78
2022/03/27 02:48:49;;;;;;;19.40;6.82;;;5.80;99.90;;;;;;5093771;27;20050;-79
2022/03/27 02:51:16;;;;;;;13.18;6.55;;;5.80;99.90;;;;;;5104906;27;20455;-81
2022/03/27 02:53:42;;;;;;;17.70;7.03;;;5.70;99.90;;;;;;5109659;27;20042;-79
2022/03/27 02:56:08;;;;;;;24.85;6.38;;;5.70;99.90;;;;;;5111006;27;20038;-79
2022/03/27 02:58:35;;;;;;;22.83;7.50;;;5.60;99.90;;;;;;5079916;27;20036;-78
2022/03/27 03:01:02;;;;;;;23.48;6.97;;;5.60;99.90;;;;;;5092662;27;20046;-81
2022/03/27 03:03:28;;;;;;;17.58;6.70;;;5.50;99.90;;;;;;5100317;27;20072;-77
2022/03/27 03:05:54;;;;;;;17.60;6.72;;;5.50;99.90;;;;;;5082674;27;20485;-77
2022/03/27 03:08:20;;;;;;;20.42;7.80;;;5.40;99.90;;;;;;5131440;27;20042;-80
2022/03/27 03:10:46;;;;;;;16.23;6.53;;;5.40;99.90;;;;;;5110873;27;20039;-78
2022/03/27 03:13:12;;;;;;;14.63;6.60;;;5.40;99.90;;;;;;5109244;27;20055;-79
2022/03/27 03:15:42;;;;;;;20.92;7.50;;;5.40;99.90;;;;;;5135115;27;20027;-79
2022/03/27 03:18:11;;;;;;;17.02;6.93;;;5.30;99.90;;;;;;5115496;27;20118;-80
2022/03/27 03:20:38;;;;;;;23.90;6.75;;;5.30;99.90;;;;;;5096375;27;20046;-80
2022/03/27 03:23:04;;;;;;;18.20;6.82;;;5.30;99.90;;;;;;5105226;27;20458;-82
2022/03/27 03:25:31;;;;;;;31.60;7.03;;;5.20;99.90;;;;;;5091366;27;20062;-79
2022/03/27 03:27:57;;;;;;;38.42;7.72;;;5.10;99.90;;;;;;5113412;27;20051;-80
2022/03/27 03:30:23;;;;;;;17.92;6.50;;;5.10;99.90;;;;;;5100310;27;20406;-79
2022/03/27 03:32:49;;;;;;;17.85;6.65;;;5.20;99.90;;;;;;5092557;27;20151;-79
2022/03/27 03:35:15;;;;;;;27.70;6.43;;;5.10;99.90;;;;;;5095964;27;20472;-80
2022/03/27 03:37:41;;;;;;;21.10;6.07;;;5.10;99.90;;;;;;5098810;27;20450;-79
2022/03/27 03:40:08;;;;;;;17.20;6.22;;;5.10;99.90;;;;;;5114564;27;20042;-79
2022/03/27 03:42:37;;;;;;;25.05;6.55;;;5.10;99.90;;;;;;5087344;28;20035;-78
2022/03/27 03:45:04;;;;;;;29.02;6.47;;;5.10;99.90;;;;;;5124085;27;20066;-76
2022/03/27 03:47:29;;;;;;;37.20;5.75;;;5.00;99.90;;;;;;5102581;27;20048;-80
2022/03/27 03:49:55;;;;;;;21.67;6.03;;;4.90;99.90;;;;;;5086801;27;20035;-79
2022/03/27 03:52:21;;;;;;;15.68;5.40;;;4.80;99.90;;;;;;5111767;27;20161;-79
2022/03/27 03:54:47;;;;;;;17.77;6.40;;;4.90;99.90;;;;;;5096871;28;20042;-78
2022/03/27 03:57:13;;;;;;;13.38;5.25;;;4.90;99.90;;;;;;5100897;28;20047;-80
2022/03/27 03:59:39;;;;;;;25.65;5.57;;;4.80;99.90;;;;;;5083346;28;20054;-78
2022/03/27 04:02:05;;;;;;;14.02;5.55;;;4.80;99.90;;;;;;5090925;28;20043;-82
2022/03/27 04:04:32;;;;;;;14.65;5.28;;;4.80;99.90;;;;;;5087434;28;20167;-79
2022/03/27 04:06:59;;;;;;;17.83;4.75;;;4.80;99.90;;;;;;5116093;27;20062;-76
2022/03/27 04:09:25;;;;;;;13.40;5.30;;;4.80;99.90;;;;;;5104994;27;20436;-77
2022/03/27 04:11:50;;;;;;;14.43;4.82;;;4.70;99.90;;;;;;5115527;28;20506;-78
2022/03/27 04:14:16;;;;;;;11.20;4.45;;;4.70;99.90;;;;;;5085693;27;20050;-80
2022/03/27 04:16:42;;;;;;;13.23;4.45;;;4.60;99.90;;;;;;5122964;27;21109;-77
2022/03/27 04:19:08;;;;;;;17.27;4.70;;;4.60;99.90;;;;;;5104568;27;20034;-80
2022/03/27 04:21:33;;;;;;;14.90;4.68;;;4.50;99.90;;;;;;5120891;27;20112;-78
2022/03/27 04:23:59;;;;;;;14.38;4.90;;;4.50;99.90;;;;;;5107744;27;20039;-78
2022/03/27 04:26:25;;;;;;;12.90;4.30;;;4.50;99.90;;;;;;5102630;27;20043;-76
2022/03/27 04:28:50;;;;;;;15.30;4.47;;;4.40;99.90;;;;;;5102092;27;20055;-77
2022/03/27 04:31:18;;;;;;;9.68;3.72;;;4.40;99.90;;;;;;5089136;27;20105;-79
2022/03/27 04:33:44;;;;;;;10.35;4.05;;;4.30;99.90;;;;;;5115316;28;20058;-80
2022/03/27 04:36:09;;;;;;;16.95;4.35;;;4.40;99.90;;;;;;5107823;28;20339;-77
2022/03/27 04:38:35;;;;;;;20.45;4.50;;;4.30;99.90;;;;;;5092651;27;20051;-79
2022/03/27 04:41:01;;;;;;;14.05;4.07;;;4.30;99.90;;;;;;5093755;27;20037;-78
2022/03/27 04:43:28;;;;;;;9.85;4.13;;;4.20;99.90;;;;;;5098961;27;20043;-80
2022/03/27 04:45:55;;;;;;;12.45;4.78;;;4.20;99.90;;;;;;5107637;27;20047;-75
2022/03/27 04:48:20;;;;;;;12.32;4.47;;;4.20;99.90;;;;;;5129236;27;20484;-78
2022/03/27 04:50:46;;;;;;;13.57;4.70;;;4.20;99.90;;;;;;5110110;27;20160;-80
2022/03/27 04:53:12;;;;;;;18.33;4.38;;;4.20;99.90;;;;;;5119621;27;20047;-77
2022/03/27 04:55:38;;;;;;;23.20;4.05;;;4.20;99.90;;;;;;5106768;27;20084;-77
2022/03/27 04:58:08;;;;;;;15.80;4.53;;;4.20;99.90;;;;;;5097504;27;20055;-80
2022/03/27 05:00:33;;;;;;;66.43;5.20;;;4.10;99.90;;;;;;5106411;27;20479;-77
2022/03/27 05:02:59;;;;;;;19.17;3.97;;;4.10;99.90;;;;;;5113632;27;20071;-80
2022/03/27 05:05:24;;;;;;;35.17;3.85;;;4.10;99.90;;;;;;5092988;27;20515;-78
2022/03/27 05:07:50;;;;;;;51.92;3.75;;;4.00;99.90;;;;;;5088453;27;20251;-76
2022/03/27 05:10:16;;;;;;;81.05;3.67;;;4.00;99.90;;;;;;5105258;27;20054;-77
2022/03/27 05:12:42;;;;;;;18.40;3.20;;;3.90;99.90;;;;;;5127563;27;20120;-77
2022/03/27 05:15:09;;;;;;;56.05;3.40;;;3.90;99.90;;;;;;5107468;27;20047;-79
2022/03/27 05:17:50;;;;;;;40.53;3.22;;;3.90;99.90;;;;;;5104216;27;20088;-76
2022/03/27 05:20:16;;;;;;;9.02;2.55;;;3.90;99.90;;;;;;5091907;27;20036;-76
2022/03/27 05:22:42;;;;;;;12.40;2.90;;;3.90;99.90;;;;;;5112316;27;20046;-78
2022/03/27 05:25:09;;;;;;;6.72;2.63;;;4.00;99.90;;;;;;5108290;27;20071;-81
2022/03/27 05:27:42;;;;;;;8.00;2.08;;;3.90;99.90;;;;;;5086462;27;20039;-78
2022/03/27 05:30:08;;;;;;;11.23;2.50;;;3.90;99.90;;;;;;5094805;27;20031;-77
2022/03/27 05:32:33;;;;;;;18.02;3.15;;;4.00;99.90;;;;;;5125335;27;20070;-77
2022/03/27 05:34:59;;;;;;;15.45;3.20;;;4.00;99.90;;;;;;5109796;27;20070;-77
2022/03/27 05:37:25;;;;;;;12.93;2.80;;;4.00;99.90;;;;;;5092196;27;20413;-80
2022/03/27 05:39:50;;;;;;;18.25;4.05;;;4.10;99.90;;;;;;5093094;27;20062;-79
2022/03/27 05:42:16;;;;;;;16.98;4.15;;;4.10;99.90;;;;;;5107748;27;20034;-77
2022/03/27 05:44:41;;;;;;;27.73;4.65;;;4.00;99.90;;;;;;5107591;27;20049;-81
2022/03/27 05:47:07;;;;;;;25.83;4.22;;;4.10;99.90;;;;;;5090593;27;20046;-77
2022/03/27 05:49:33;;;;;;;16.77;4.10;;;4.30;99.90;;;;;;5081567;27;20488;-79
2022/03/27 05:51:58;;;;;;;22.98;4.97;;;4.30;99.90;;;;;;5092273;27;20071;-77
2022/03/27 05:54:24;;;;;;;25.90;4.95;;;4.30;99.90;;;;;;5090939;27;20051;-81
2022/03/27 05:56:50;;;;;;;16.45;4.38;;;4.30;99.90;;;;;;5127242;27;20042;-80
2022/03/27 05:59:16;;;;;;;19.23;3.97;;;4.30;99.90;;;;;;5090441;27;20031;-76
2022/03/27 06:01:42;;;;;;;13.05;3.67;;;5.00;99.90;;;;;;5111838;27;20040;-80
2022/03/27 06:04:07;;;;;;;17.67;4.07;;;4.80;99.90;;;;;;5108065;27;20076;-78
2022/03/27 06:06:33;;;;;;;24.67;4.15;;;4.80;99.90;;;;;;5101564;27;20089;-79
2022/03/27 06:08:59;;;;;;;22.35;3.78;;;4.90;99.90;;;;;;5108738;27;20058;-79
2022/03/27 06:11:25;;;;;;;30.05;4.50;;;4.80;99.90;;;;;;5093563;27;20055;-81
2022/03/27 06:13:51;;;;;;;19.98;4.55;;;4.90;99.90;;;;;;5111283;27;20679;-78
2022/03/27 06:16:16;;;;;;;33.35;4.50;;;4.90;99.90;;;;;;5108918;27;20035;-78
2022/03/27 06:18:43;;;;;;;27.85;4.78;;;4.90;99.90;;;;;;5104785;27;20043;-76
2022/03/27 06:21:08;;;;;;;26.42;4.13;;;4.80;99.90;;;;;;5112731;27;20027;-77
2022/03/27 06:23:37;;;;;;;19.55;3.80;;;4.80;99.90;;;;;;5112339;27;21510;-78
2022/03/27 06:26:03;;;;;;;25.20;4.38;;;4.80;99.90;;;;;;5101089;27;20055;-77
2022/03/27 06:28:31;;;;;;;21.67;4.38;;;4.80;99.90;;;;;;5099645;28;20518;-79
2022/03/27 06:30:57;;;;;;;21.70;4.50;;;4.80;99.90;;;;;;5103541;27;20039;-76
2022/03/27 06:33:22;;;;;;;22.90;4.18;;;4.90;99.90;;;;;;5110134;27;20050;-77
2022/03/27 06:35:48;;;;;;;27.95;5.50;;;4.90;99.90;;;;;;5091417;27;20051;-76
2022/03/27 06:38:14;;;;;;;30.30;4.93;;;5.00;99.90;;;;;;5116981;27;20027;-79
2022/03/27 06:40:40;;;;;;;34.95;5.50;;;5.10;99.90;;;;;;5123207;27;20114;-77
2022/03/27 06:43:05;;;;;;;46.75;6.28;;;5.30;99.90;;;;;;5121569;27;20039;-79
2022/03/27 06:45:32;;;;;;;59.33;8.18;;;5.50;99.90;;;;;;5126781;27;20126;-75
2022/03/27 06:47:58;;;;;;;70.55;8.98;;;5.70;99.90;;;;;;5118561;27;20034;-77
2022/03/27 06:50:24;;;;;;;69.38;9.75;;;6.00;99.90;;;;;;5131087;27;20057;-78
2022/03/27 06:52:51;;;;;;;67.80;9.25;;;6.40;99.90;;;;;;5112310;27;20043;-80
2022/03/27 06:55:22;;;;;;;71.00;9.10;;;6.20;99.90;;;;;;5102166;27;20107;-82
2022/03/27 06:57:48;;;;;;;52.45;7.82;;;6.40;99.90;;;;;;5085373;27;20072;-77
2022/03/27 07:03:02;;;;;;;72.18;8.90;;;6.50;99.90;;;;;;5113830;27;20047;-80
2022/03/27 07:05:39;;;;;;;76.78;8.93;;;6.60;99.90;;;;;;5098693;27;20035;-80
2022/03/27 07:08:10;;;;;;;63.00;8.30;;;6.70;99.90;;;;;;5114308;27;22192;-82
2022/03/27 07:10:37;;;;;;;64.45;8.60;;;6.70;99.90;;;;;;5114230;27;20046;-81
2022/03/27 07:13:08;;;;;;;80.57;8.90;;;6.80;99.90;;;;;;5132275;27;20456;-81
2022/03/27 07:15:35;;;;;;;61.33;8.93;;;6.90;99.90;;;;;;5105970;27;20050;-81
2022/03/27 07:18:01;;;;;;;64.97;8.88;;;6.80;99.90;;;;;;5093257;27;20091;-82
2022/03/27 07:20:32;;;;;;;56.15;7.88;;;6.90;99.90;;;;;;5086366;27;20043;-76
2022/03/27 07:23:01;;;;;;;53.70;8.00;;;6.90;99.90;;;;;;5108735;27;20053;-80
2022/03/27 07:25:29;;;;;;;66.00;8.27;;;7.00;99.90;;;;;;5110854;27;20051;-79
2022/03/27 07:27:56;;;;;;;57.45;8.88;;;7.00;99.90;;;;;;5095977;28;20054;-79
2022/03/27 07:30:22;;;;;;;57.35;7.90;;;7.00;99.90;;;;;;5114605;27;20059;-82
2022/03/27 07:32:52;;;;;;;56.13;8.40;;;7.10;99.90;;;;;;5114073;28;20046;-78
2022/03/27 07:35:18;;;;;;;61.85;9.27;;;7.10;99.90;;;;;;5098301;28;20043;-80
2022/03/27 07:37:44;;;;;;;55.65;8.25;;;7.00;99.90;;;;;;5112197;27;20078;-76
2022/03/27 07:40:12;;;;;;;64.03;9.18;;;7.10;99.90;;;;;;5110771;27;20035;-77
2022/03/27 07:42:41;;;;;;;53.45;8.10;;;7.10;99.90;;;;;;5095858;27;20039;-80
2022/03/27 07:45:09;;;;;;;51.75;7.70;;;7.20;99.90;;;;;;5108380;28;20059;-78
2022/03/27 07:47:35;;;;;;;63.97;8.57;;;7.20;99.90;;;;;;5116654;28;20027;-78
2022/03/27 07:50:02;;;;;;;56.40;7.60;;;7.30;99.90;;;;;;5114658;27;20035;-79
2022/03/27 07:52:28;;;;;;;57.78;8.70;;;7.30;99.90;;;;;;5111879;28;20149;-78
2022/03/27 07:54:54;;;;;;;52.83;8.77;;;7.30;99.90;;;;;;5112701;28;20535;-77
2022/03/27 07:57:20;;;;;;;56.08;8.52;;;7.30;99.90;;;;;;5109637;28;20044;-77
2022/03/27 07:59:47;;;;;;;60.67;9.35;;;7.30;99.90;;;;;;5110827;28;20636;-77
2022/03/27 08:02:16;;;;;;;63.10;8.95;;;7.40;99.90;;;;;;5077256;27;20042;-78
2022/03/27 08:04:42;;;;;;;51.42;8.30;;;7.50;99.90;;;;;;5092798;27;20382;-78
2022/03/27 08:07:07;;;;;;;56.38;8.27;;;7.50;99.90;;;;;;5097151;27;20122;-76
2022/03/27 08:09:33;;;;;;;61.60;9.45;;;7.50;99.90;;;;;;5109371;28;20039;-80
2022/03/27 08:11:59;;;;;;;58.10;9.23;;;7.70;99.90;;;;;;5111053;27;20541;-79
2022/03/27 08:14:28;;;;;;;68.35;9.93;;;7.80;99.90;;;;;;5106526;27;20073;-79
2022/03/27 08:16:54;;;;;;;65.78;9.52;;;7.70;99.90;;;;;;5108007;27;20119;-80
2022/03/27 08:19:20;;;;;;;49.60;8.45;;;7.80;99.90;;;;;;5088940;27;20092;-75
2022/03/27 08:21:46;;;;;;;64.97;9.60;;;7.70;99.90;;;;;;5104371;27;20064;-75
2022/03/27 08:24:12;;;;;;;53.47;8.85;;;7.70;99.90;;;;;;5121452;27;20038;-78
2022/03/27 08:26:56;;;;;;;49.25;8.02;;;7.80;99.90;;;;;;5102836;27;20054;-76
2022/03/27 08:29:26;;;;;;;51.15;7.75;;;7.90;99.90;;;;;;5114762;27;20062;-78
2022/03/27 08:31:53;;;;;;;61.15;9.13;;;7.90;99.90;;;;;;5111855;27;20119;-76
2022/03/27 08:34:20;;;;;;;53.17;7.93;;;7.90;99.90;;;;;;5113799;27;20125;-77
2022/03/27 08:36:47;;;;;;;52.63;8.18;;;8.30;99.90;;;;;;5111709;27;20076;-75
2022/03/27 08:39:13;;;;;;;61.22;9.95;;;8.40;99.90;;;;;;5096529;27;20037;-78
2022/03/27 08:41:47;;;;;;;57.72;8.38;;;8.40;99.90;;;;;;5114586;27;20035;-75
2022/03/27 08:44:18;;;;;;;58.15;8.30;;;8.50;99.90;;;;;;5134680;27;20042;-75
2022/03/27 08:46:45;;;;;;;49.05;7.47;;;8.50;99.90;;;;;;5116392;27;20043;-77
2022/03/27 08:49:29;;;;;;;48.50;7.97;;;8.60;99.90;;;;;;5114773;27;20091;-77
2022/03/27 08:52:02;;;;;;;34.20;6.38;;;8.50;99.90;;;;;;5099578;27;20042;-76
2022/03/27 08:55:00;;;;;;;57.67;9.05;;;8.60;99.90;;;;;;5115970;27;20043;-78
2022/03/27 08:57:51;;;;;;;50.65;7.85;;;8.50;99.90;;;;;;5104831;27;20051;-77
2022/03/27 09:00:23;;;;;;;48.00;8.43;;;8.70;99.90;;;;;;5101691;27;20112;-75
2022/03/27 09:02:50;;;;;;;53.38;9.20;;;8.80;99.90;;;;;;5114110;27;20057;-76
2022/03/27 09:05:17;;;;;;;43.50;7.25;;;8.80;99.90;;;;;;5093989;27;20455;-75
2022/03/27 09:07:42;;;;;;;40.05;6.85;;;8.70;99.90;;;;;;5112479;27;20040;-78
2022/03/27 09:10:09;;;;;;;41.35;7.25;;;8.80;99.90;;;;;;5114885;27;20413;-79
2022/03/27 09:12:36;;;;;;;50.58;8.02;;;8.70;99.90;;;;;;5096884;27;20664;-77
2022/03/27 09:15:08;;;;;;;58.55;9.45;;;8.90;99.90;;;;;;5117785;27;20039;-77
2022/03/27 09:17:59;;;;;;;48.33;7.10;;;8.90;99.90;;;;;;5103831;27;20377;-77
2022/03/27 09:20:37;;;;;;;45.08;7.53;;;8.90;99.90;;;;;;5115502;27;20335;-74
2022/03/27 09:23:16;;;;;;;55.25;8.57;;;8.80;99.90;;;;;;5120863;27;20042;-78
2022/03/27 09:25:44;;;;;;;47.03;8.40;;;9.10;99.90;;;;;;5106943;27;20047;-80
2022/03/27 09:28:10;;;;;;;55.03;7.93;;;8.90;99.90;;;;;;5125167;27;20032;-77
2022/03/27 09:30:36;;;;;;;50.40;8.05;;;9.10;99.90;;;;;;5106508;27;20372;-78
2022/03/27 09:33:02;;;;;;;42.20;8.60;;;9.30;99.90;;;;;;5093602;27;20104;-74
2022/03/27 09:35:28;;;;;;;45.55;6.57;;;9.20;99.90;;;;;;5123931;27;20035;-76
2022/03/27 09:37:54;;;;;;;43.30;7.47;;;9.30;99.90;;;;;;5134195;27;20027;-79
2022/03/27 09:40:20;;;;;;;46.90;7.25;;;9.20;99.90;;;;;;5119099;27;20088;-76
2022/03/27 09:42:47;;;;;;;38.28;7.22;;;9.30;99.90;;;;;;5122122;27;20035;-74
2022/03/27 09:45:23;;;;;;;53.55;7.85;;;9.20;99.90;;;;;;5111022;27;20078;-77
2022/03/27 09:47:53;;;;;;;40.45;6.55;;;9.30;99.90;;;;;;5106059;27;20065;-80
2022/03/27 09:50:33;;;;;;;49.03;7.75;;;9.50;99.90;;;;;;5086543;27;20130;-75
2022/03/27 09:53:22;;;;;;;48.80;7.68;;;9.60;99.90;;;;;;5088225;27;20051;-78
2022/03/27 09:55:59;;;;;;;40.60;7.55;;;9.50;99.90;;;;;;5113481;27;20047;-76
2022/03/27 09:58:35;;;;;;;31.90;5.65;;;9.60;99.90;;;;;;5109295;27;20043;-76
2022/03/27 10:01:27;;;;;;;44.38;7.80;;;9.60;99.90;;;;;;5119224;27;20146;-76
2022/03/27 10:04:00;;;;;;;39.20;6.30;;;9.70;99.90;;;;;;5093220;27;20039;-78
2022/03/27 10:06:39;;;;;;;38.15;6.32;;;9.90;99.90;;;;;;5097964;27;20079;-74
2022/03/27 10:09:10;;;;;;;52.42;7.35;;;9.90;99.90;;;;;;5108769;27;20547;-80
2022/03/27 10:11:38;;;;;;;43.15;6.25;;;9.90;99.90;;;;;;5074978;27;20046;-79
2022/03/27 10:14:06;;;;;;;38.33;6.63;;;10.00;99.90;;;;;;5092267;27;20048;-73
2022/03/27 10:16:46;;;;;;;38.67;6.25;;;10.10;99.90;;;;;;5108860;27;20054;-77
2022/03/27 10:19:29;;;;;;;40.03;6.78;;;10.40;99.90;;;;;;5111627;27;20039;-79
2022/03/27 10:21:55;;;;;;;40.30;6.47;;;10.70;99.90;;;;;;5110897;27;20055;-76
2022/03/27 10:24:26;;;;;;;42.00;7.55;;;10.60;99.90;;;;;;5092994;27;20466;-76
2022/03/27 10:26:57;;;;;;;37.65;6.88;;;10.70;99.90;;;;;;5094243;27;20047;-76
2022/03/27 10:29:24;;;;;;;38.70;5.93;;;10.90;99.90;;;;;;5119363;27;20051;-74
2022/03/27 10:31:50;;;;;;;36.20;6.82;;;11.20;99.90;;;;;;5110894;27;20051;-77
2022/03/27 10:34:19;;;;;;;47.95;8.02;;;11.30;99.90;;;;;;5093977;27;20051;-74
2022/03/27 10:36:56;;;;;;;38.88;6.30;;;11.20;99.90;;;;;;5097696;27;20083;-79
2022/03/27 10:39:54;;;;;;;36.95;6.47;;;11.40;99.90;;;;;;5110958;27;20055;-80
2022/03/27 10:42:25;;;;;;;41.50;6.65;;;11.60;99.90;;;;;;5090283;27;20112;-75
2022/03/27 10:45:07;;;;;;;37.72;5.65;;;11.60;99.90;;;;;;5126819;27;20061;-76
2022/03/27 10:47:33;;;;;;;32.00;5.70;;;11.70;99.90;;;;;;5094869;27;20035;-79
2022/03/27 10:50:02;;;;;;;41.58;6.78;;;12.10;99.90;;;;;;5110392;27;20042;-76
2022/03/27 10:52:28;;;;;;;30.33;6.40;;;12.00;99.90;;;;;;5103166;27;20054;-76
2022/03/27 10:55:14;;;;;;;33.22;6.20;;;12.10;99.90;;;;;;5106643;27;20585;-77
2022/03/27 10:57:42;;;;;;;35.58;6.72;;;12.30;99.90;;;;;;5096923;27;20470;-79
2022/03/27 11:00:10;;;;;;;36.33;6.40;;;12.40;99.90;;;;;;5103368;27;20047;-75
2022/03/27 11:02:53;;;;;;;36.08;6.43;;;12.80;99.90;;;;;;5095973;27;20041;-79
2022/03/27 11:05:36;;;;;;;34.75;7.22;;;12.60;99.90;;;;;;5112372;27;20074;-78
2022/03/27 11:08:17;;;;;;;30.25;5.88;;;12.80;99.90;;;;;;5098261;27;20051;-79
2022/03/27 11:10:49;;;;;;;36.67;7.40;;;12.90;99.90;;;;;;5094996;27;20051;-77
2022/03/27 11:13:33;;;;;;;31.52;5.30;;;12.90;99.90;;;;;;5110239;27;20119;-77
2022/03/27 11:16:02;;;;;;;30.90;5.93;;;13.10;99.90;;;;;;5106818;27;20417;-78
2022/03/27 11:18:42;;;;;;;27.33;5.55;;;13.20;99.90;;;;;;5120721;27;20393;-77
2022/03/27 11:21:12;;;;;;;27.70;5.85;;;13.20;99.90;;;;;;5096449;27;20411;-77
2022/03/27 11:23:41;;;;;;;31.10;5.88;;;13.30;99.90;;;;;;5108897;27;20421;-82
2022/03/27 11:26:19;;;;;;;24.83;5.13;;;13.40;99.90;;;;;;5097789;27;20103;-83
2022/03/27 11:28:51;;;;;;;29.58;5.88;;;13.50;99.90;;;;;;5109845;27;20038;-83
2022/03/27 11:31:23;;;;;;;29.15;5.22;;;13.40;99.90;;;;;;5110486;27;22049;-78
2022/03/27 11:34:04;;;;;;;31.52;4.97;;;13.70;99.90;;;;;;5111243;28;20047;-80
2022/03/27 11:36:34;;;;;;;28.88;4.88;;;13.80;99.90;;;;;;5092043;28;20054;-78
2022/03/27 11:39:13;;;;;;;21.23;4.60;;;14.00;99.90;;;;;;5128038;28;20335;-78
2022/03/27 11:41:48;;;;;;;26.10;5.18;;;13.90;99.90;;;;;;5092984;28;20036;-81
2022/03/27 11:44:17;;;;;;;27.13;5.88;;;14.20;99.90;;;;;;5111570;28;20503;-77
2022/03/27 11:46:53;;;;;;;20.80;4.30;;;14.50;99.90;;;;;;5105282;27;20051;-78
2022/03/27 11:49:36;;;;;;;20.85;4.28;;;14.50;99.90;;;;;;5098028;27;20049;-79
2022/03/27 11:52:13;;;;;;;20.48;4.78;;;14.70;99.90;;;;;;5115920;27;20043;-82
2022/03/27 11:54:40;;;;;;;19.88;4.70;;;14.60;99.90;;;;;;5115546;27;20367;-83
2022/03/27 11:57:06;;;;;;;18.27;4.00;;;14.60;99.60;;;;;;5099335;27;20050;-80
2022/03/27 11:59:47;;;;;;;16.48;3.60;;;14.60;99.70;;;;;;5098014;27;20051;-81
2022/03/27 12:02:14;;;;;;;17.33;4.13;;;15.00;98.20;;;;;;5112184;27;20047;-80
2022/03/27 12:04:54;;;;;;;15.85;4.10;;;14.80;99.90;;;;;;5115474;27;20099;-79
2022/03/27 12:07:24;;;;;;;17.33;3.97;;;15.10;97.70;;;;;;5098915;27;20130;-80
2022/03/27 12:09:58;;;;;;;14.25;3.47;;;15.40;98.00;;;;;;5098501;27;20035;-78
2022/03/27 12:12:24;;;;;;;17.67;3.58;;;15.30;96.80;;;;;;5114928;27;20055;-83
2022/03/27 12:15:00;;;;;;;14.50;3.70;;;15.50;96.00;;;;;;5098406;27;20069;-79
2022/03/27 12:17:31;;;;;;;19.23;4.15;;;15.80;92.90;;;;;;5115576;27;20051;-80
2022/03/27 12:20:08;;;;;;;15.70;4.10;;;15.30;94.40;;;;;;5115597;27;20035;-79
2022/03/27 12:22:45;;;;;;;18.63;4.03;;;15.40;96.20;;;;;;5114942;27;20039;-81
2022/03/27 12:25:24;;;;;;;13.98;3.05;;;15.90;96.20;;;;;;5111011;27;20096;-79
2022/03/27 12:30:45;;;;;;;;;;;15.70;93.70;;;;;;5115376;27;20062;-81
2022/03/27 12:33:11;;;;;;;16.33;3.13;;;15.60;93.80;;;;;;5098523;27;19975;-80
2022/03/27 12:35:36;;;;;;;16.63;3.40;;;15.70;93.30;;;;;;5097965;27;20053;-83
2022/03/27 12:38:02;;;;;;;10.35;3.05;;;15.90;95.50;;;;;;5114694;27;20055;-81
2022/03/27 12:40:28;;;;;;;17.75;3.58;;;16.10;93.60;;;;;;5114846;27;20077;-77
2022/03/27 12:43:11;;;;;;;13.23;3.20;;;15.90;93.20;;;;;;5098106;27;20458;-81
2022/03/27 12:45:41;;;;;;;12.07;3.25;;;15.80;92.20;;;;;;5096184;27;20050;-83
2022/03/27 12:48:19;;;;;;;16.23;3.75;;;15.80;94.30;;;;;;5117672;27;20043;-80
2022/03/27 12:50:51;;;;;;;15.15;3.70;;;15.70;93.90;;;;;;5096201;27;20081;-81
2022/03/27 12:53:22;;;;;;;13.40;3.40;;;15.50;94.50;;;;;;5095133;27;20127;-78
2022/03/27 12:55:55;;;;;;;15.65;3.70;;;15.80;94.30;;;;;;5114347;27;20035;-77
2022/03/27 12:58:38;;;;;;;12.70;3.53;;;15.50;95.10;;;;;;5114168;27;20411;-82
2022/03/27 13:01:06;;;;;;;16.02;3.90;;;15.70;95.40;;;;;;5095959;27;20403;-79
2022/03/27 13:03:32;;;;;;;16.73;3.92;;;15.30;97.20;;;;;;5116573;27;20039;-82